createdAt,value
2018-05-23T00:02:15.213Z,4.03
2018-05-23T00:04:44.245Z,3.63
2018-05-23T00:07:12.613Z,2.93
2018-05-23T00:09:40.942Z,3.03
2018-05-23T00:12:09.226Z,3.00
2018-05-23T00:14:37.613Z,3.57
2018-05-23T00:17:05.900Z,3.10
2018-05-23T00:19:34.909Z,3.43
2018-05-23T00:22:04.036Z,3.03
2018-05-23T00:24:32.332Z,3.63
2018-05-23T00:27:00.571Z,3.13
2018-05-23T00:29:28.842Z,3.40
2018-05-23T00:31:57.120Z,3.63
2018-05-23T00:34:25.351Z,3.43
2018-05-23T00:36:54.389Z,4.03
2018-05-23T00:39:22.693Z,3.70
2018-05-23T00:41:50.962Z,3.90
2018-05-23T00:44:19.231Z,3.40
2018-05-23T00:46:47.528Z,3.70
2018-05-23T00:49:15.788Z,4.20
2018-05-23T00:51:44.072Z,4.00
2018-05-23T00:54:12.344Z,3.67
2018-05-23T00:56:40.583Z,3.60
2018-05-23T00:59:08.892Z,4.07
2018-05-23T01:01:37.193Z,4.03
2018-05-23T01:04:05.438Z,3.50
2018-05-23T01:06:33.713Z,4.20
2018-05-23T01:09:01.954Z,3.97
2018-05-23T01:11:30.236Z,4.00
2018-05-23T01:13:58.522Z,3.17
2018-05-23T01:16:27.645Z,3.70
2018-05-23T01:18:55.910Z,3.47
2018-05-23T01:21:24.210Z,4.10
2018-05-23T01:23:52.473Z,3.80
2018-05-23T01:26:20.734Z,4.13
2018-05-23T01:28:48.993Z,3.80
2018-05-23T01:31:17.261Z,4.07
2018-05-23T01:33:45.507Z,3.90
2018-05-23T01:36:13.744Z,3.97
2018-05-23T01:38:42.027Z,4.20
2018-05-23T01:41:10.288Z,4.37
2018-05-23T01:43:38.605Z,4.17
2018-05-23T01:46:06.833Z,3.93
2018-05-23T01:51:21.673Z,4.00
2018-05-23T01:53:50.744Z,4.50
2018-05-23T01:56:19.009Z,5.27
2018-05-23T01:58:47.269Z,4.00
2018-05-23T02:01:15.529Z,4.47
2018-05-23T02:03:43.821Z,4.07
2018-05-23T02:06:12.046Z,4.30
2018-05-23T02:08:42.025Z,4.30
2018-05-23T02:11:10.286Z,4.13
2018-05-23T02:13:38.557Z,4.30
2018-05-23T02:16:06.872Z,4.70
2018-05-23T02:18:35.103Z,4.20
2018-05-23T02:21:03.407Z,4.33
2018-05-23T02:23:31.646Z,4.50
2018-05-23T02:25:59.944Z,4.23
2018-05-23T02:28:28.243Z,4.20
2018-05-23T02:30:56.530Z,4.40
2018-05-23T02:33:26.281Z,4.20
2018-05-23T02:35:54.588Z,4.50
2018-05-23T02:38:22.875Z,4.20
2018-05-23T02:40:51.116Z,4.57
2018-05-23T02:43:19.419Z,4.43
2018-05-23T02:45:47.685Z,4.60
2018-05-23T02:48:15.958Z,4.57
2018-05-23T02:50:44.224Z,4.37
2018-05-23T02:53:12.517Z,4.33
2018-05-23T02:55:40.788Z,4.63
2018-05-23T02:58:09.068Z,4.70
2018-05-23T03:00:37.346Z,4.33
2018-05-23T03:03:05.760Z,4.60
2018-05-23T03:05:33.930Z,4.60
2018-05-23T03:08:03.093Z,4.73
2018-05-23T03:10:31.364Z,4.40
2018-05-23T03:12:59.676Z,4.73
2018-05-23T03:15:27.927Z,4.73
2018-05-23T03:17:56.305Z,4.87
2018-05-23T03:20:24.676Z,4.00
2018-05-23T03:22:52.916Z,4.90
2018-05-23T03:25:22.184Z,4.87
2018-05-23T03:27:50.441Z,4.83
2018-05-23T03:30:18.700Z,4.93
2018-05-23T03:32:47.001Z,4.57
2018-05-23T03:35:15.260Z,5.03
2018-05-23T03:37:43.547Z,4.33
2018-05-23T03:40:11.916Z,4.80
2018-05-23T03:42:40.153Z,4.57
2018-05-23T03:45:08.428Z,4.47
2018-05-23T03:47:37.494Z,5.13
2018-05-23T03:50:05.744Z,4.70
2018-05-23T03:52:34.105Z,4.63
2018-05-23T03:55:02.365Z,5.10
2018-05-23T03:57:30.599Z,4.83
2018-05-23T04:00:10.713Z,5.07
2018-05-23T04:02:51.584Z,5.43
2018-05-23T04:05:31.822Z,4.83
2018-05-23T04:08:00.084Z,5.10
2018-05-23T04:10:29.103Z,5.53
2018-05-23T04:12:57.397Z,5.60
2018-05-23T04:15:25.641Z,5.43
2018-05-23T04:17:54.692Z,5.10
2018-05-23T04:20:22.962Z,5.23
2018-05-23T04:22:51.250Z,5.73
2018-05-23T04:25:19.627Z,5.50
2018-05-23T04:27:47.880Z,5.70
2018-05-23T04:30:16.139Z,5.23
2018-05-23T04:32:44.432Z,5.33
2018-05-23T04:35:12.695Z,5.43
2018-05-23T04:37:40.976Z,5.17
2018-05-23T04:40:09.205Z,5.70
2018-05-23T04:42:38.236Z,5.37
2018-05-23T04:45:06.538Z,6.23
2018-05-23T04:47:34.808Z,5.87
2018-05-23T04:50:03.122Z,5.20
2018-05-23T04:52:31.371Z,5.45
2018-05-23T04:54:59.673Z,5.07
2018-05-23T04:57:27.892Z,5.40
2018-05-23T04:59:56.178Z,5.53
2018-05-23T05:02:24.585Z,4.78
2018-05-23T05:04:52.858Z,4.80
2018-05-23T05:07:21.135Z,4.30
2018-05-23T05:09:49.392Z,5.22
2018-05-23T05:12:17.686Z,4.62
2018-05-23T05:14:45.950Z,5.00
2018-05-23T05:17:14.337Z,4.40
2018-05-23T05:19:42.620Z,4.90
2018-05-23T05:22:10.857Z,4.93
2018-05-23T05:24:39.104Z,4.87
2018-05-23T05:27:07.392Z,4.93
2018-05-23T05:29:35.709Z,4.85
2018-05-23T05:32:04.009Z,4.22
2018-05-23T05:34:32.308Z,4.85
2018-05-23T05:37:01.329Z,5.00
2018-05-23T05:39:29.602Z,4.93
2018-05-23T05:41:57.869Z,4.43
2018-05-23T05:44:26.297Z,8.50
2018-05-23T05:46:54.739Z,4.87
2018-05-23T05:49:22.951Z,4.30
2018-05-23T05:51:51.296Z,4.80
2018-05-23T05:54:19.716Z,4.72
2018-05-23T05:56:47.999Z,4.37
2018-05-23T05:59:16.613Z,4.78
2018-05-23T06:01:44.900Z,4.60
2018-05-23T06:04:13.166Z,5.18
2018-05-23T06:06:41.460Z,4.82
2018-05-23T06:09:09.741Z,4.43
2018-05-23T06:11:38.016Z,4.62
2018-05-23T06:14:06.262Z,4.62
2018-05-23T06:16:34.832Z,4.28
2018-05-23T06:19:03.980Z,4.97
2018-05-23T06:21:32.242Z,4.15
2018-05-23T06:24:00.554Z,4.78
2018-05-23T06:26:28.841Z,4.30
2018-05-23T06:28:57.089Z,4.28
2018-05-23T06:31:25.403Z,4.32
2018-05-23T06:33:54.451Z,4.20
2018-05-23T06:36:22.740Z,3.75
2018-05-23T06:38:51.137Z,4.37
2018-05-23T06:41:19.380Z,4.18
2018-05-23T06:43:47.671Z,4.30
2018-05-23T06:46:15.925Z,3.40
2018-05-23T06:48:44.234Z,3.85
2018-05-23T06:51:12.619Z,3.42
2018-05-23T06:53:40.847Z,3.50
2018-05-23T06:56:09.132Z,3.37
2018-05-23T06:58:37.394Z,2.92
2018-05-23T07:01:05.677Z,3.37
2018-05-23T07:03:33.990Z,2.53
2018-05-23T07:06:02.264Z,3.17
2018-05-23T07:08:30.570Z,2.62
2018-05-23T07:10:58.837Z,2.63
2018-05-23T07:13:27.104Z,2.92
2018-05-23T07:15:55.359Z,2.60
2018-05-23T07:18:23.635Z,2.78
2018-05-23T07:20:51.883Z,2.70
2018-05-23T07:23:20.164Z,3.03
2018-05-23T07:25:48.411Z,2.30
2018-05-23T07:28:17.474Z,2.40
2018-05-23T07:30:45.707Z,2.62
2018-05-23T07:33:14.114Z,11.00
2018-05-23T07:35:42.377Z,3.10
2018-05-23T07:38:10.775Z,10.23
2018-05-23T07:40:39.159Z,2.37
2018-05-23T07:43:07.439Z,2.15
2018-05-23T07:45:37.214Z,2.60
2018-05-23T07:48:05.496Z,2.83
2018-05-23T07:50:33.765Z,2.28
2018-05-23T07:53:02.010Z,3.55
2018-05-23T07:55:31.064Z,7.40
2018-05-23T07:57:59.323Z,3.58
2018-05-23T08:00:27.723Z,2.50
2018-05-23T08:02:56.013Z,3.00
2018-05-23T08:05:24.378Z,2.47
2018-05-23T08:07:52.614Z,2.60
2018-05-23T08:10:20.901Z,3.22
2018-05-23T08:12:49.168Z,2.20
2018-05-23T08:15:17.428Z,2.90
2018-05-23T08:17:45.730Z,3.00
2018-05-23T08:20:13.964Z,2.50
2018-05-23T08:22:43.089Z,2.60
2018-05-23T08:25:11.465Z,3.83
2018-05-23T08:27:39.740Z,3.42
2018-05-23T08:30:08.015Z,2.30
2018-05-23T08:32:36.889Z,2.60
2018-05-23T08:35:05.217Z,2.45
2018-05-23T08:37:33.484Z,2.50
2018-05-23T08:40:01.775Z,2.60
2018-05-23T08:42:30.051Z,2.60
2018-05-23T08:44:58.319Z,2.67
2018-05-23T08:47:26.601Z,1.80
2018-05-23T08:49:55.139Z,2.17
2018-05-23T08:52:23.438Z,2.08
2018-05-23T08:54:51.682Z,2.12
2018-05-23T08:57:19.988Z,2.42
2018-05-23T08:59:48.258Z,1.98
2018-05-23T09:02:16.572Z,2.40
2018-05-23T09:04:44.935Z,1.70
2018-05-23T09:07:13.211Z,2.47
2018-05-23T09:09:41.497Z,2.55
2018-05-23T09:12:09.775Z,2.58
2018-05-23T09:14:38.050Z,2.05
2018-05-23T09:17:06.405Z,2.33
2018-05-23T09:19:34.731Z,2.42
2018-05-23T09:22:03.009Z,2.40
2018-05-23T09:24:32.048Z,2.05
2018-05-23T09:27:00.278Z,2.28
2018-05-23T09:29:29.325Z,2.22
2018-05-23T09:31:57.599Z,2.30
2018-05-23T09:34:25.990Z,1.80
2018-05-23T09:36:54.365Z,2.80
2018-05-23T09:39:22.635Z,2.20
2018-05-23T09:41:50.907Z,1.90
2018-05-23T09:44:19.187Z,2.00
2018-05-23T09:46:47.447Z,2.03
2018-05-23T09:49:15.737Z,2.00
2018-05-23T09:51:43.980Z,1.95
2018-05-23T09:54:12.283Z,2.10
2018-05-23T09:56:40.571Z,2.10
2018-05-23T09:59:08.810Z,1.70
2018-05-23T10:01:37.167Z,2.37
2018-05-23T10:04:05.370Z,1.80
2018-05-23T10:06:33.636Z,2.40
2018-05-23T10:09:01.911Z,2.12
2018-05-23T10:11:30.275Z,2.03
2018-05-23T10:13:58.532Z,1.98
2018-05-23T10:16:28.346Z,2.12
2018-05-23T10:18:56.573Z,2.30
2018-05-23T10:21:24.846Z,1.85
2018-05-23T10:23:53.142Z,2.47
2018-05-23T10:26:21.458Z,2.10
2018-05-23T10:28:49.714Z,2.15
2018-05-23T10:31:18.024Z,1.95
2018-05-23T10:33:47.073Z,2.33
2018-05-23T10:36:15.356Z,2.40
2018-05-23T10:38:43.637Z,2.22
2018-05-23T10:41:11.984Z,2.10
2018-05-23T10:43:40.293Z,1.80
2018-05-23T10:46:08.663Z,2.35
2018-05-23T10:48:37.652Z,2.22
2018-05-23T10:51:05.955Z,2.40
2018-05-23T10:53:34.239Z,1.92
2018-05-23T10:56:03.258Z,1.90
2018-05-23T10:58:31.527Z,2.10
2018-05-23T11:00:59.797Z,2.53
2018-05-23T11:03:28.940Z,2.72
2018-05-23T11:05:57.374Z,2.33
2018-05-23T11:08:25.601Z,1.75
2018-05-23T11:10:53.901Z,2.03
2018-05-23T11:13:22.274Z,2.58
2018-05-23T11:15:50.548Z,1.75
2018-05-23T11:18:18.825Z,2.42
2018-05-23T11:20:47.192Z,2.00
2018-05-23T11:23:15.476Z,2.40
2018-05-23T11:25:43.758Z,2.22
2018-05-23T11:28:12.027Z,2.08
2018-05-23T11:30:40.315Z,1.87
2018-05-23T11:33:08.585Z,2.35
2018-05-23T11:35:36.940Z,2.10
2018-05-23T11:38:05.312Z,2.20
2018-05-23T11:40:33.589Z,2.50
2018-05-23T11:43:01.862Z,2.05
2018-05-23T11:45:30.164Z,2.28
2018-05-23T11:47:58.436Z,2.00
2018-05-23T11:50:26.713Z,1.98
2018-05-23T11:52:55.024Z,1.90
2018-05-23T11:55:24.017Z,2.20
2018-05-23T11:57:52.285Z,2.22
2018-05-23T12:00:21.441Z,2.10
2018-05-23T12:02:49.749Z,2.47
2018-05-23T12:05:18.786Z,2.15
2018-05-23T12:07:47.071Z,2.12
2018-05-23T12:10:15.339Z,1.80
2018-05-23T12:12:43.604Z,2.12
2018-05-23T12:15:11.879Z,2.10
2018-05-23T12:17:40.144Z,1.67
2018-05-23T12:20:09.197Z,2.33
2018-05-23T12:22:37.450Z,1.50
2018-05-23T12:25:05.831Z,2.20
2018-05-23T12:27:34.093Z,2.40
2018-05-23T12:30:02.362Z,1.87
2018-05-23T12:32:30.681Z,2.42
2018-05-23T12:34:58.956Z,1.73
2018-05-23T12:37:27.339Z,2.80
2018-05-23T12:39:55.564Z,2.25
2018-05-23T12:42:24.007Z,2.03
2018-05-23T12:44:52.279Z,2.30
2018-05-23T12:47:20.645Z,1.80
2018-05-23T12:49:48.900Z,2.17
2018-05-23T12:52:17.156Z,2.57
2018-05-23T12:54:45.475Z,2.50
2018-05-23T12:57:13.733Z,2.20
2018-05-23T12:59:41.994Z,2.22
2018-05-23T13:02:10.234Z,2.28
2018-05-23T13:04:39.303Z,1.95
2018-05-23T13:07:07.635Z,2.42
2018-05-23T13:09:35.917Z,1.85
2018-05-23T13:12:04.149Z,2.60
2018-05-23T13:14:33.308Z,2.03
2018-05-23T13:17:01.572Z,2.33
2018-05-23T13:19:29.828Z,1.90
2018-05-23T13:21:58.152Z,1.92
2018-05-23T13:24:26.382Z,2.80
2018-05-23T13:26:54.683Z,2.25
2018-05-23T13:29:22.973Z,2.00
2018-05-23T13:31:51.279Z,2.10
2018-05-23T13:34:20.313Z,2.05
2018-05-23T13:36:48.570Z,2.05
2018-05-23T13:39:17.878Z,1.90
2018-05-23T13:41:46.178Z,2.17
2018-05-23T13:44:14.485Z,1.58
2018-05-23T13:46:42.854Z,2.05
2018-05-23T13:49:11.131Z,2.25
2018-05-23T13:51:40.919Z,2.08
2018-05-23T13:54:09.199Z,2.10
2018-05-23T13:56:37.451Z,2.10
2018-05-23T13:59:05.740Z,2.30
2018-05-23T14:01:34.049Z,2.22
2018-05-23T14:04:02.336Z,2.40
2018-05-23T14:06:30.637Z,2.40
2018-05-23T14:08:59.647Z,2.27
2018-05-23T14:11:27.962Z,2.28
2018-05-23T14:13:57.272Z,1.95
2018-05-23T14:16:25.553Z,2.40
2018-05-23T14:18:53.930Z,1.90
2018-05-23T14:21:22.167Z,2.47
2018-05-23T14:23:50.444Z,2.28
2018-05-23T14:26:18.728Z,2.15
2018-05-23T14:28:47.012Z,2.42
2018-05-23T14:31:15.254Z,2.28
2018-05-23T14:33:43.553Z,2.40
2018-05-23T14:36:11.819Z,1.97
2018-05-23T14:38:40.126Z,2.50
2018-05-23T14:41:08.469Z,2.40
2018-05-23T14:43:36.818Z,2.72
2018-05-23T14:46:05.049Z,2.20
2018-05-23T14:48:33.328Z,2.35
2018-05-23T14:51:01.616Z,2.37
2018-05-23T14:53:29.889Z,2.70
2018-05-23T14:55:58.167Z,1.90
2018-05-23T14:58:26.439Z,2.95
2018-05-23T15:00:54.677Z,2.28
2018-05-23T15:03:22.965Z,2.62
2018-05-23T15:05:51.239Z,2.30
2018-05-23T15:08:19.513Z,2.37
2018-05-23T15:10:47.786Z,2.67
2018-05-23T15:13:16.050Z,2.25
2018-05-23T15:15:44.329Z,2.47
2018-05-23T15:18:12.661Z,2.22
2018-05-23T15:20:41.706Z,2.28
2018-05-23T15:23:09.960Z,1.87
2018-05-23T15:25:38.296Z,1.85
2018-05-23T15:28:06.521Z,2.60
2018-05-23T15:30:34.829Z,2.30
2018-05-23T15:33:03.068Z,2.47
2018-05-23T15:35:31.403Z,2.00
2018-05-23T15:37:59.661Z,2.42
2018-05-23T15:40:27.955Z,2.20
2018-05-23T15:42:56.309Z,1.98
2018-05-23T15:45:24.554Z,2.73
2018-05-23T15:47:52.824Z,2.22
2018-05-23T15:50:21.092Z,2.28
2018-05-23T15:52:50.182Z,2.30
2018-05-23T15:55:19.226Z,2.50
2018-05-23T15:57:47.488Z,2.87
2018-05-23T16:00:15.777Z,2.47
2018-05-23T16:02:44.053Z,2.33
2018-05-23T16:05:12.332Z,2.35
2018-05-23T16:07:40.572Z,3.70
2018-05-23T16:10:08.875Z,2.20
2018-05-23T16:12:37.463Z,3.00
2018-05-23T16:15:05.742Z,2.70
2018-05-23T16:17:34.047Z,1.90
2018-05-23T16:20:02.342Z,2.50
2018-05-23T16:22:30.628Z,2.10
2018-05-23T16:24:59.673Z,2.70
2018-05-23T16:27:27.954Z,2.25
2018-05-23T16:29:56.255Z,2.28
2018-05-23T16:32:24.619Z,2.37
2018-05-23T16:34:52.925Z,2.22
2018-05-23T16:37:21.969Z,2.60
2018-05-23T16:39:50.267Z,2.10
2018-05-23T16:42:18.628Z,2.27
2018-05-23T16:44:46.925Z,2.30
2018-05-23T16:47:15.159Z,2.20
2018-05-23T16:49:43.488Z,2.60
2018-05-23T16:52:11.848Z,4.00
2018-05-23T16:54:40.811Z,2.00
2018-05-23T16:57:09.131Z,2.40
2018-05-23T16:59:37.404Z,2.15
2018-05-23T17:05:18.290Z,2.70
2018-05-23T17:07:46.588Z,1.83
2018-05-23T17:10:14.840Z,2.10
2018-05-23T17:12:43.074Z,2.37
2018-05-23T17:15:11.374Z,1.92
2018-05-23T17:17:39.638Z,2.70
2018-05-23T17:20:07.958Z,2.77
2018-05-23T17:22:36.225Z,2.47
2018-05-23T17:25:06.199Z,2.30
2018-05-23T17:27:34.453Z,2.55
2018-05-23T17:30:02.810Z,2.50
2018-05-23T17:32:31.837Z,2.17
2018-05-23T17:35:00.131Z,2.53
2018-05-23T17:37:28.446Z,2.12
2018-05-23T17:39:56.701Z,2.40
2018-05-23T17:42:25.005Z,1.98
2018-05-23T17:44:53.237Z,2.10
2018-05-23T17:47:21.521Z,2.20
2018-05-23T17:49:49.802Z,1.60
2018-05-23T17:52:18.079Z,2.40
2018-05-23T17:54:46.382Z,2.07
2018-05-23T17:57:14.751Z,2.08
2018-05-23T17:59:43.024Z,2.05
2018-05-23T18:02:11.333Z,2.40
2018-05-23T18:04:40.363Z,2.37
2018-05-23T18:07:08.614Z,1.90
2018-05-23T18:09:36.925Z,2.20
2018-05-23T18:12:05.248Z,2.00
2018-05-23T18:14:33.443Z,2.47
2018-05-23T18:17:01.763Z,2.08
2018-05-23T18:19:30.014Z,2.00
2018-05-23T18:21:58.339Z,2.20
2018-05-23T18:24:26.719Z,1.98
2018-05-23T18:26:55.008Z,2.37
2018-05-23T18:29:24.091Z,2.00
2018-05-23T18:31:52.370Z,2.08
2018-05-23T18:34:21.482Z,2.00
2018-05-23T18:36:50.565Z,1.87
2018-05-23T18:39:19.607Z,2.37
2018-05-23T18:41:47.921Z,2.37
2018-05-23T18:44:16.302Z,2.42
2018-05-23T18:46:44.633Z,2.15
2018-05-23T18:49:12.905Z,2.45
2018-05-23T18:51:41.227Z,2.40
2018-05-23T18:54:09.549Z,2.60
2018-05-23T18:56:38.701Z,2.05
2018-05-23T18:59:06.975Z,2.22
2018-05-23T19:04:09.959Z,2.42
2018-05-23T19:06:38.278Z,2.33
2018-05-23T19:09:06.547Z,2.30
2018-05-23T19:11:34.875Z,2.30
2018-05-23T19:14:03.120Z,2.35
2018-05-23T19:16:31.432Z,2.25
2018-05-23T19:18:59.745Z,2.50
2018-05-23T19:21:28.904Z,2.45
2018-05-23T19:23:57.162Z,2.50
2018-05-23T19:26:25.650Z,2.47
2018-05-23T19:28:53.914Z,2.30
2018-05-23T19:31:22.174Z,2.30
2018-05-23T19:33:51.254Z,2.80
2018-05-23T19:36:20.772Z,2.40
2018-05-23T19:38:49.070Z,2.30
2018-05-23T19:41:17.481Z,2.70
2018-05-23T19:43:45.705Z,2.53
2018-05-23T19:46:14.779Z,2.55
2018-05-23T19:48:43.076Z,2.87
2018-05-23T19:51:12.315Z,2.08
2018-05-23T19:53:40.639Z,2.70
2018-05-23T19:56:08.900Z,2.20
2018-05-23T19:58:37.173Z,2.28
2018-05-23T20:01:06.270Z,2.47
2018-05-23T20:03:34.951Z,2.30
2018-05-23T20:06:03.362Z,2.40
2018-05-23T20:08:32.433Z,2.50
2018-05-23T20:11:00.700Z,3.58
2018-05-23T20:13:29.014Z,2.63
2018-05-23T20:15:58.050Z,2.30
2018-05-23T20:18:27.472Z,2.40
2018-05-23T20:20:55.761Z,2.70
2018-05-23T20:23:24.090Z,2.92
2018-05-23T20:25:52.377Z,2.37
2018-05-23T20:28:20.689Z,2.62
2018-05-23T20:30:50.079Z,2.25
2018-05-23T20:33:18.353Z,3.00
2018-05-23T20:35:46.749Z,2.47
2018-05-23T20:38:15.128Z,3.08
2018-05-23T20:40:43.511Z,2.85
2018-05-23T20:43:11.798Z,2.80
2018-05-23T20:45:40.052Z,3.47
2018-05-23T20:48:08.368Z,2.90
2018-05-23T20:50:36.627Z,3.00
2018-05-23T20:53:06.741Z,3.30
2018-05-23T20:55:35.009Z,3.47
2018-05-23T20:58:03.281Z,2.87
2018-05-23T21:00:33.080Z,2.58
2018-05-23T21:03:01.486Z,3.30
2018-05-23T21:05:29.836Z,2.67
2018-05-23T21:07:58.060Z,3.25
2018-05-23T21:10:27.080Z,2.80
2018-05-23T21:12:55.436Z,3.10
2018-05-23T21:15:23.722Z,2.70
2018-05-23T21:17:51.984Z,2.55
2018-05-23T21:20:20.557Z,2.80
2018-05-23T21:22:49.576Z,2.85
2018-05-23T21:25:17.873Z,2.53
2018-05-23T21:27:46.209Z,2.60
2018-05-23T21:30:14.445Z,2.78
2018-05-23T21:32:42.690Z,3.15
2018-05-23T21:35:10.999Z,3.03
2018-05-23T21:37:39.298Z,3.62
2018-05-23T21:40:07.625Z,2.85
2018-05-23T21:42:35.921Z,2.62
2018-05-23T21:45:04.465Z,2.60
2018-05-23T21:47:32.804Z,3.05
2018-05-23T21:50:01.081Z,2.90
2018-05-23T21:52:29.370Z,2.60
2018-05-23T21:54:58.426Z,2.50
2018-05-23T21:57:26.734Z,3.05
2018-05-23T21:59:55.735Z,3.22
2018-05-23T22:02:25.825Z,2.90
2018-05-23T22:04:54.118Z,2.90
2018-05-23T22:07:23.163Z,2.40
2018-05-23T22:09:51.455Z,3.05
2018-05-23T22:12:19.730Z,2.60
2018-05-23T22:14:48.098Z,2.92
2018-05-23T22:17:16.272Z,2.90
2018-05-23T22:19:44.552Z,2.73
2018-05-23T22:22:12.799Z,2.87
2018-05-23T22:24:41.102Z,3.77
2018-05-23T22:27:09.388Z,2.40
2018-05-23T22:29:37.682Z,2.90
2018-05-23T22:32:06.013Z,3.05
2018-05-23T22:34:34.309Z,3.00
2018-05-23T22:37:02.561Z,2.40
2018-05-23T22:39:30.856Z,2.90
2018-05-23T22:41:59.137Z,3.10
2018-05-23T22:44:27.387Z,2.10
2018-05-23T22:46:55.669Z,2.37
2018-05-23T22:49:23.923Z,2.47
2018-05-23T22:51:52.198Z,2.67
2018-05-23T22:54:22.058Z,2.40
2018-05-23T22:56:52.293Z,2.47
2018-05-23T22:59:20.575Z,2.90
2018-05-23T23:01:48.800Z,2.60
2018-05-23T23:04:17.787Z,2.70
2018-05-23T23:06:46.919Z,2.70
2018-05-23T23:09:15.148Z,3.00
2018-05-23T23:11:45.108Z,2.83
2018-05-23T23:14:13.366Z,2.67
2018-05-23T23:16:42.463Z,2.70
2018-05-23T23:19:10.718Z,2.63
2018-05-23T23:21:38.982Z,3.40
2018-05-23T23:24:08.046Z,2.90
2018-05-23T23:26:36.299Z,2.67
2018-05-23T23:29:04.581Z,2.60
2018-05-23T23:31:32.885Z,2.80
2018-05-23T23:34:01.181Z,2.80
2018-05-23T23:36:30.205Z,2.53
2018-05-23T23:38:58.490Z,2.80
2018-05-23T23:41:26.750Z,2.83
2018-05-23T23:43:55.048Z,2.97
2018-05-23T23:46:24.236Z,3.23
2018-05-23T23:48:52.525Z,2.87
2018-05-23T23:51:20.913Z,3.00
2018-05-23T23:53:49.178Z,2.70
2018-05-23T23:56:18.687Z,2.90
2018-05-23T23:58:46.908Z,2.33
